sensor_id;sensor_type;location;lat;lon;timestamp;pressure;altitude;pressure_sealevel;temperature;humidity
46456;BME280;64052;47.466;9.094;2023-02-19T00:00:01;96467.91;;;13.35;51.88
46456;BME280;64052;47.466;9.094;2023-02-19T00:05:13;96468.69;;;13.26;51.60
46456;BME280;64052;47.466;9.094;2023-02-19T00:10:15;96451.81;;;13.17;51.45
46456;BME280;64052;47.466;9.094;2023-02-19T00:15:16;96459.19;;;12.92;52.34
46456;BME280;64052;47.466;9.094;2023-02-19T00:20:18;96449.66;;;12.80;52.63
46456;BME280;64052;47.466;9.094;2023-02-19T00:25:20;96448.81;;;12.79;51.91
46456;BME280;64052;47.466;9.094;2023-02-19T00:30:21;96451.72;;;12.55;53.25
46456;BME280;64052;47.466;9.094;2023-02-19T00:35:23;96454.66;;;12.41;52.98
46456;BME280;64052;47.466;9.094;2023-02-19T00:40:24;96451.81;;;12.32;53.16
46456;BME280;64052;47.466;9.094;2023-02-19T00:45:27;96443.94;;;12.21;53.15
46456;BME280;64052;47.466;9.094;2023-02-19T00:50:28;96445.66;;;11.99;53.62
46456;BME280;64052;47.466;9.094;2023-02-19T00:55:30;96436.91;;;11.99;53.97
46456;BME280;64052;47.466;9.094;2023-02-19T01:00:31;96436.78;;;11.89;53.72
46456;BME280;64052;47.466;9.094;2023-02-19T01:05:33;96438.28;;;11.81;53.61
46456;BME280;64052;47.466;9.094;2023-02-19T01:10:34;96430.72;;;11.77;54.31
46456;BME280;64052;47.466;9.094;2023-02-19T01:15:36;96423.03;;;11.74;53.71
46456;BME280;64052;47.466;9.094;2023-02-19T01:20:42;96420.88;;;11.67;53.69
46456;BME280;64052;47.466;9.094;2023-02-19T01:25:44;96413.34;;;11.51;54.52
46456;BME280;64052;47.466;9.094;2023-02-19T01:30:45;96413.00;;;11.45;54.92
46456;BME280;64052;47.466;9.094;2023-02-19T01:35:46;96414.22;;;11.29;54.50
46456;BME280;64052;47.466;9.094;2023-02-19T01:40:58;96415.91;;;11.07;55.56
46456;BME280;64052;47.466;9.094;2023-02-19T01:46:01;96418.28;;;11.22;55.00
46456;BME280;64052;47.466;9.094;2023-02-19T01:51:06;96410.38;;;11.33;54.44
46456;BME280;64052;47.466;9.094;2023-02-19T01:56:10;96414.22;;;11.29;54.88
46456;BME280;64052;47.466;9.094;2023-02-19T02:01:13;96408.69;;;11.44;55.49
46456;BME280;64052;47.466;9.094;2023-02-19T02:06:24;96398.78;;;11.69;55.42
46456;BME280;64052;47.466;9.094;2023-02-19T02:11:26;96392.50;;;11.81;54.84
46456;BME280;64052;47.466;9.094;2023-02-19T02:16:40;96374.69;;;11.94;54.10
46456;BME280;64052;47.466;9.094;2023-02-19T02:32:26;96355.16;;;11.86;54.50
46456;BME280;64052;47.466;9.094;2023-02-19T02:37:34;96346.94;;;11.67;54.32
46456;BME280;64052;47.466;9.094;2023-02-19T02:42:38;96343.31;;;11.69;54.32
46456;BME280;64052;47.466;9.094;2023-02-19T02:47:53;96345.81;;;11.49;54.86
46456;BME280;64052;47.466;9.094;2023-02-19T02:53:00;96332.25;;;11.42;54.18
46456;BME280;64052;47.466;9.094;2023-02-19T02:58:04;96339.59;;;11.27;54.74
46456;BME280;64052;47.466;9.094;2023-02-19T03:03:05;96335.31;;;11.15;55.49
46456;BME280;64052;47.466;9.094;2023-02-19T03:13:29;96333.72;;;11.23;56.48
46456;BME280;64052;47.466;9.094;2023-02-19T03:18:35;96342.91;;;11.52;55.85
46456;BME280;64052;47.466;9.094;2023-02-19T03:23:38;96340.03;;;11.76;55.52
46456;BME280;64052;47.466;9.094;2023-02-19T03:28:41;96335.19;;;11.93;54.82
46456;BME280;64052;47.466;9.094;2023-02-19T03:33:46;96338.91;;;11.90;55.18
46456;BME280;64052;47.466;9.094;2023-02-19T03:39:00;96334.88;;;11.86;55.53
46456;BME280;64052;47.466;9.094;2023-02-19T03:44:22;96332.94;;;11.88;55.37
46456;BME280;64052;47.466;9.094;2023-02-19T03:49:43;96328.22;;;11.92;54.71
46456;BME280;64052;47.466;9.094;2023-02-19T04:00:41;96359.50;;;12.08;54.02
46456;BME280;64052;47.466;9.094;2023-02-19T04:05:59;96374.94;;;12.24;54.21
46456;BME280;64052;47.466;9.094;2023-02-19T04:11:02;96371.06;;;12.28;53.57
46456;BME280;64052;47.466;9.094;2023-02-19T04:16:12;96370.19;;;12.18;53.77
46456;BME280;64052;47.466;9.094;2023-02-19T04:21:18;96349.47;;;12.02;54.26
46456;BME280;64052;47.466;9.094;2023-02-19T04:26:21;96315.84;;;11.92;54.82
46456;BME280;64052;47.466;9.094;2023-02-19T04:31:23;96316.69;;;11.93;55.09
46456;BME280;64052;47.466;9.094;2023-02-19T04:36:26;96325.13;;;11.87;54.55
46456;BME280;64052;47.466;9.094;2023-02-19T04:41:28;96339.41;;;11.84;54.98
46456;BME280;64052;47.466;9.094;2023-02-19T04:46:30;96331.69;;;11.92;54.93
46456;BME280;64052;47.466;9.094;2023-02-19T04:51:31;96318.19;;;11.74;55.14
46456;BME280;64052;47.466;9.094;2023-02-19T04:56:33;96327.63;;;11.88;55.17
46456;BME280;64052;47.466;9.094;2023-02-19T05:01:34;96335.09;;;11.83;55.98
46456;BME280;64052;47.466;9.094;2023-02-19T05:06:36;96349.16;;;11.84;56.34
46456;BME280;64052;47.466;9.094;2023-02-19T05:11:37;96355.53;;;11.81;56.46
46456;BME280;64052;47.466;9.094;2023-02-19T05:16:39;96364.06;;;11.73;56.74
46456;BME280;64052;47.466;9.094;2023-02-19T05:21:40;96353.47;;;11.85;56.93
46456;BME280;64052;47.466;9.094;2023-02-19T05:26:42;96372.28;;;11.91;56.45
46456;BME280;64052;47.466;9.094;2023-02-19T05:31:45;96379.25;;;12.04;56.67
46456;BME280;64052;47.466;9.094;2023-02-19T05:36:47;96376.28;;;12.18;56.37
46456;BME280;64052;47.466;9.094;2023-02-19T05:41:48;96388.69;;;12.18;55.89
46456;BME280;64052;47.466;9.094;2023-02-19T05:46:50;96383.72;;;12.25;56.26
46456;BME280;64052;47.466;9.094;2023-02-19T05:51:52;96388.69;;;12.18;56.45
46456;BME280;64052;47.466;9.094;2023-02-19T05:56:53;96389.06;;;12.34;56.29
46456;BME280;64052;47.466;9.094;2023-02-19T06:01:55;96410.75;;;12.49;55.72
46456;BME280;64052;47.466;9.094;2023-02-19T06:06:56;96404.03;;;12.45;55.31
46456;BME280;64052;47.466;9.094;2023-02-19T06:11:58;96409.06;;;12.48;54.42
46456;BME280;64052;47.466;9.094;2023-02-19T06:17:00;96415.50;;;12.56;55.05
46456;BME280;64052;47.466;9.094;2023-02-19T06:22:01;96440.81;;;12.48;54.77
46456;BME280;64052;47.466;9.094;2023-02-19T06:27:07;96441.69;;;12.37;55.67
46456;BME280;64052;47.466;9.094;2023-02-19T06:32:09;96442.00;;;12.44;55.91
46456;BME280;64052;47.466;9.094;2023-02-19T06:37:11;96446.09;;;12.16;55.94
46456;BME280;64052;47.466;9.094;2023-02-19T06:42:12;96465.09;;;12.21;55.98
46456;BME280;64052;47.466;9.094;2023-02-19T06:47:14;96468.47;;;12.00;56.36
46456;BME280;64052;47.466;9.094;2023-02-19T06:52:15;96479.19;;;11.99;56.39
46456;BME280;64052;47.466;9.094;2023-02-19T06:57:17;96481.13;;;11.85;57.20
46456;BME280;64052;47.466;9.094;2023-02-19T07:02:19;96487.84;;;11.89;57.07
46456;BME280;64052;47.466;9.094;2023-02-19T07:07:20;96499.50;;;11.87;57.13
46456;BME280;64052;47.466;9.094;2023-02-19T07:12:22;96515.34;;;11.87;58.63
46456;BME280;64052;47.466;9.094;2023-02-19T07:17:23;96523.63;;;11.93;58.64
46456;BME280;64052;47.466;9.094;2023-02-19T07:22:26;96523.03;;;11.90;58.43
46456;BME280;64052;47.466;9.094;2023-02-19T07:27:27;96538.88;;;12.13;58.03
46456;BME280;64052;47.466;9.094;2023-02-19T07:32:29;96546.31;;;12.19;57.92
46456;BME280;64052;47.466;9.094;2023-02-19T07:37:30;96548.09;;;12.30;57.72
46456;BME280;64052;47.466;9.094;2023-02-19T07:42:32;96556.78;;;12.09;57.68
46456;BME280;64052;47.466;9.094;2023-02-19T07:47:33;96567.72;;;11.93;58.46
46456;BME280;64052;47.466;9.094;2023-02-19T07:52:35;96573.25;;;12.13;57.94
46456;BME280;64052;47.466;9.094;2023-02-19T07:57:36;96579.63;;;12.10;58.18
46456;BME280;64052;47.466;9.094;2023-02-19T08:02:38;96585.72;;;12.33;56.89
46456;BME280;64052;47.466;9.094;2023-02-19T08:07:39;96593.63;;;12.77;55.83
46456;BME280;64052;47.466;9.094;2023-02-19T08:12:41;96599.13;;;12.86;55.45
46456;BME280;64052;47.466;9.094;2023-02-19T08:17:42;96603.06;;;12.59;56.46
46456;BME280;64052;47.466;9.094;2023-02-19T08:22:44;96596.38;;;12.76;55.63
46456;BME280;64052;47.466;9.094;2023-02-19T08:27:45;96605.66;;;12.70;55.86
46456;BME280;64052;47.466;9.094;2023-02-19T08:32:47;96604.78;;;12.48;57.03
46456;BME280;64052;47.466;9.094;2023-02-19T08:37:48;96609.47;;;12.89;55.97
46456;BME280;64052;47.466;9.094;2023-02-19T08:42:50;96613.41;;;12.95;55.44
46456;BME280;64052;47.466;9.094;2023-02-19T08:47:52;96623.28;;;12.92;54.96
46456;BME280;64052;47.466;9.094;2023-02-19T08:52:53;96612.94;;;12.89;55.42
46456;BME280;64052;47.466;9.094;2023-02-19T08:57:55;96614.50;;;12.92;54.85
46456;BME280;64052;47.466;9.094;2023-02-19T09:02:57;96620.34;;;12.74;55.47
46456;BME280;64052;47.466;9.094;2023-02-19T09:07:58;96635.28;;;12.64;55.99
46456;BME280;64052;47.466;9.094;2023-02-19T09:13:00;96622.41;;;12.04;57.32
46456;BME280;64052;47.466;9.094;2023-02-19T09:18:01;96626.22;;;11.88;57.66
46456;BME280;64052;47.466;9.094;2023-02-19T09:23:03;96621.38;;;11.59;58.95
46456;BME280;64052;47.466;9.094;2023-02-19T09:28:04;96615.50;;;11.78;58.43
46456;BME280;64052;47.466;9.094;2023-02-19T09:33:08;96613.09;;;11.75;58.31
46456;BME280;64052;47.466;9.094;2023-02-19T09:38:09;96621.28;;;11.84;57.69
46456;BME280;64052;47.466;9.094;2023-02-19T09:43:16;96619.00;;;11.90;58.19
46456;BME280;64052;47.466;9.094;2023-02-19T09:48:18;96616.81;;;11.84;57.32
46456;BME280;64052;47.466;9.094;2023-02-19T09:53:23;96626.97;;;12.13;56.89
46456;BME280;64052;47.466;9.094;2023-02-19T09:58:49;96632.97;;;12.15;56.28
46456;BME280;64052;47.466;9.094;2023-02-19T10:03:52;96632.25;;;12.25;56.65
46456;BME280;64052;47.466;9.094;2023-02-19T10:09:23;96636.56;;;12.03;56.77
46456;BME280;64052;47.466;9.094;2023-02-19T10:14:31;96634.66;;;12.05;57.15
46456;BME280;64052;47.466;9.094;2023-02-19T10:19:35;96639.69;;;12.08;56.89
46456;BME280;64052;47.466;9.094;2023-02-19T10:24:39;96644.50;;;12.14;56.99
46456;BME280;64052;47.466;9.094;2023-02-19T10:29:43;96634.63;;;12.28;56.71
46456;BME280;64052;47.466;9.094;2023-02-19T10:34:46;96639.19;;;12.37;57.73
46456;BME280;64052;47.466;9.094;2023-02-19T10:39:48;96647.22;;;12.58;57.82
46456;BME280;64052;47.466;9.094;2023-02-19T10:44:55;96657.63;;;12.71;57.46
46456;BME280;64052;47.466;9.094;2023-02-19T10:49:59;96657.66;;;12.60;57.59
46456;BME280;64052;47.466;9.094;2023-02-19T10:55:32;96652.72;;;12.67;57.32
46456;BME280;64052;47.466;9.094;2023-02-19T11:00:37;96640.56;;;12.64;57.19
46456;BME280;64052;47.466;9.094;2023-02-19T11:05:50;96636.28;;;12.51;57.36
46456;BME280;64052;47.466;9.094;2023-02-19T11:10:54;96638.91;;;12.63;57.70
46456;BME280;64052;47.466;9.094;2023-02-19T11:15:56;96636.75;;;12.57;57.58
46456;BME280;64052;47.466;9.094;2023-02-19T11:20:59;96638.44;;;12.46;58.23
46456;BME280;64052;47.466;9.094;2023-02-19T11:26:04;96652.97;;;12.52;57.78
46456;BME280;64052;47.466;9.094;2023-02-19T11:31:29;96657.06;;;12.68;56.94
46456;BME280;64052;47.466;9.094;2023-02-19T11:36:36;96648.03;;;12.59;56.84
46456;BME280;64052;47.466;9.094;2023-02-19T11:52:41;96634.13;;;12.34;58.19
46456;BME280;64052;47.466;9.094;2023-02-19T11:57:57;96622.50;;;12.25;58.24
46456;BME280;64052;47.466;9.094;2023-02-19T12:08:55;96602.31;;;12.24;58.03
46456;BME280;64052;47.466;9.094;2023-02-19T12:14:23;96600.75;;;12.21;57.69
46456;BME280;64052;47.466;9.094;2023-02-19T12:46:07;96585.44;;;12.81;54.82
46456;BME280;64052;47.466;9.094;2023-02-19T12:51:46;96593.38;;;12.81;54.40
46456;BME280;64052;47.466;9.094;2023-02-19T13:02:21;96607.31;;;12.83;54.13
46456;BME280;64052;47.466;9.094;2023-02-19T13:07:32;96622.34;;;12.49;53.86
46456;BME280;64052;47.466;9.094;2023-02-19T13:12:38;96632.53;;;12.65;53.57
46456;BME280;64052;47.466;9.094;2023-02-19T13:17:48;96641.53;;;12.74;53.59
46456;BME280;64052;47.466;9.094;2023-02-19T13:33:46;96637.81;;;12.65;52.96
46456;BME280;64052;47.466;9.094;2023-02-19T13:38:55;96636.75;;;12.57;53.56
46456;BME280;64052;47.466;9.094;2023-02-19T13:44:02;96619.38;;;12.31;53.13
46456;BME280;64052;47.466;9.094;2023-02-19T13:54:30;96608.47;;;12.69;52.62
46456;BME280;64052;47.466;9.094;2023-02-19T13:59:37;96624.16;;;12.26;53.04
46456;BME280;64052;47.466;9.094;2023-02-19T14:09:47;96609.06;;;12.05;53.65
46456;BME280;64052;47.466;9.094;2023-02-19T14:14:55;96611.53;;;11.95;54.42
46456;BME280;64052;47.466;9.094;2023-02-19T14:30:27;96624.03;;;11.71;54.09
46456;BME280;64052;47.466;9.094;2023-02-19T14:35:39;96628.94;;;11.64;53.81
46456;BME280;64052;47.466;9.094;2023-02-19T14:40:42;96625.13;;;11.57;54.36
46456;BME280;64052;47.466;9.094;2023-02-19T14:45:51;96618.25;;;11.54;54.10
46456;BME280;64052;47.466;9.094;2023-02-19T14:50:57;96619.47;;;11.73;53.16
46456;BME280;64052;47.466;9.094;2023-02-19T14:56:02;96597.50;;;11.61;53.89
46456;BME280;64052;47.466;9.094;2023-02-19T15:01:03;96604.81;;;11.57;54.58
46456;BME280;64052;47.466;9.094;2023-02-19T15:06:11;96594.97;;;11.71;53.57
46456;BME280;64052;47.466;9.094;2023-02-19T15:11:18;96602.28;;;12.01;52.95
46456;BME280;64052;47.466;9.094;2023-02-19T15:16:22;96603.03;;;12.03;52.55
46456;BME280;64052;47.466;9.094;2023-02-19T15:21:29;96611.34;;;12.10;51.28
46456;BME280;64052;47.466;9.094;2023-02-19T15:26:39;96615.19;;;12.17;51.23
46456;BME280;64052;47.466;9.094;2023-02-19T15:31:51;96638.59;;;12.22;50.07
46456;BME280;64052;47.466;9.094;2023-02-19T15:36:59;96645.81;;;12.08;50.14
46456;BME280;64052;47.466;9.094;2023-02-19T15:42:02;96649.88;;;12.01;50.38
46456;BME280;64052;47.466;9.094;2023-02-19T15:47:14;96657.13;;;12.11;50.55
46456;BME280;64052;47.466;9.094;2023-02-19T15:52:50;96668.66;;;12.09;51.19
46456;BME280;64052;47.466;9.094;2023-02-19T16:03:20;96661.78;;;12.18;50.98
46456;BME280;64052;47.466;9.094;2023-02-19T16:08:31;96655.06;;;12.14;51.08
46456;BME280;64052;47.466;9.094;2023-02-19T16:13:34;96673.09;;;12.09;51.32
46456;BME280;64052;47.466;9.094;2023-02-19T16:18:35;96674.63;;;12.00;51.04
46456;BME280;64052;47.466;9.094;2023-02-19T16:23:41;96672.44;;;11.83;51.42
46456;BME280;64052;47.466;9.094;2023-02-19T16:28:43;96686.28;;;11.86;51.81
46456;BME280;64052;47.466;9.094;2023-02-19T16:33:45;96691.75;;;11.72;51.35
46456;BME280;64052;47.466;9.094;2023-02-19T16:49:25;96684.22;;;11.90;50.84
46456;BME280;64052;47.466;9.094;2023-02-19T16:54:27;96690.59;;;11.87;50.22
46456;BME280;64052;47.466;9.094;2023-02-19T16:59:28;96724.25;;;11.49;51.68
46456;BME280;64052;47.466;9.094;2023-02-19T17:04:30;96729.28;;;11.52;51.31
46456;BME280;64052;47.466;9.094;2023-02-19T17:09:32;96742.75;;;11.61;51.26
46456;BME280;64052;47.466;9.094;2023-02-19T17:14:33;96754.53;;;11.57;51.56
46456;BME280;64052;47.466;9.094;2023-02-19T17:19:35;96762.31;;;11.58;51.78
46456;BME280;64052;47.466;9.094;2023-02-19T17:24:36;96762.69;;;11.65;51.54
46456;BME280;64052;47.466;9.094;2023-02-19T17:29:38;96759.41;;;11.86;50.84
46456;BME280;64052;47.466;9.094;2023-02-19T17:34:40;96742.97;;;11.93;51.35
46456;BME280;64052;47.466;9.094;2023-02-19T17:39:41;96754.47;;;11.81;51.12
46456;BME280;64052;47.466;9.094;2023-02-19T17:44:43;96751.09;;;11.79;51.38
46456;BME280;64052;47.466;9.094;2023-02-19T17:49:44;96750.63;;;11.74;51.84
46456;BME280;64052;47.466;9.094;2023-02-19T17:54:46;96757.69;;;11.37;52.50
46456;BME280;64052;47.466;9.094;2023-02-19T17:59:47;96747.13;;;11.37;52.26
46456;BME280;64052;47.466;9.094;2023-02-19T18:04:49;96747.34;;;11.34;52.55
46456;BME280;64052;47.466;9.094;2023-02-19T18:09:50;96735.09;;;11.33;52.16
46456;BME280;64052;47.466;9.094;2023-02-19T18:14:52;96761.31;;;11.48;51.76
46456;BME280;64052;47.466;9.094;2023-02-19T18:19:53;96762.78;;;11.52;51.93
46456;BME280;64052;47.466;9.094;2023-02-19T18:24:55;96782.72;;;11.56;51.44
46456;BME280;64052;47.466;9.094;2023-02-19T18:29:56;96779.50;;;11.64;51.20
46456;BME280;64052;47.466;9.094;2023-02-19T18:34:58;96788.16;;;11.66;50.65
46456;BME280;64052;47.466;9.094;2023-02-19T18:40:01;96817.00;;;11.45;51.10
46456;BME280;64052;47.466;9.094;2023-02-19T18:45:03;96807.41;;;11.44;51.27
46456;BME280;64052;47.466;9.094;2023-02-19T18:50:05;96816.38;;;11.65;50.57
46456;BME280;64052;47.466;9.094;2023-02-19T18:55:09;96818.31;;;11.63;50.57
46456;BME280;64052;47.466;9.094;2023-02-19T19:00:18;96828.81;;;11.52;51.09
46456;BME280;64052;47.466;9.094;2023-02-19T19:05:20;96825.03;;;11.67;50.61
46456;BME280;64052;47.466;9.094;2023-02-19T19:10:22;96823.31;;;11.55;51.16
46456;BME280;64052;47.466;9.094;2023-02-19T19:15:24;96826.09;;;11.89;50.29
46456;BME280;64052;47.466;9.094;2023-02-19T19:20:26;96830.25;;;12.05;49.46
46456;BME280;64052;47.466;9.094;2023-02-19T19:25:27;96831.13;;;11.92;49.79
46456;BME280;64052;47.466;9.094;2023-02-19T19:30:29;96829.53;;;12.03;49.18
46456;BME280;64052;47.466;9.094;2023-02-19T19:35:30;96821.25;;;11.83;49.67
46456;BME280;64052;47.466;9.094;2023-02-19T19:40:32;96827.56;;;11.69;50.31
46456;BME280;64052;47.466;9.094;2023-02-19T19:45:33;96822.72;;;11.87;50.04
46456;BME280;64052;47.466;9.094;2023-02-19T19:50:35;96824.84;;;12.06;49.36
46456;BME280;64052;47.466;9.094;2023-02-19T19:55:37;96832.66;;;11.84;49.87
46456;BME280;64052;47.466;9.094;2023-02-19T20:00:38;96817.81;;;11.94;49.75
46456;BME280;64052;47.466;9.094;2023-02-19T20:05:40;96830.03;;;11.84;49.96
46456;BME280;64052;47.466;9.094;2023-02-19T20:10:41;96824.59;;;11.85;49.96
46456;BME280;64052;47.466;9.094;2023-02-19T20:15:45;96822.69;;;11.51;50.65
46456;BME280;64052;47.466;9.094;2023-02-19T20:20:47;96823.63;;;11.26;52.04
46456;BME280;64052;47.466;9.094;2023-02-19T20:25:48;96832.78;;;11.33;51.94
46456;BME280;64052;47.466;9.094;2023-02-19T20:30:50;96844.19;;;11.58;51.76
46456;BME280;64052;47.466;9.094;2023-02-19T20:35:51;96840.16;;;11.65;51.01
46456;BME280;64052;47.466;9.094;2023-02-19T20:40:53;96857.00;;;11.51;51.55
46456;BME280;64052;47.466;9.094;2023-02-19T20:45:54;96857.25;;;11.48;51.80
46456;BME280;64052;47.466;9.094;2023-02-19T20:50:56;96852.06;;;11.47;51.91
46456;BME280;64052;47.466;9.094;2023-02-19T20:55:58;96862.91;;;11.55;51.83
46456;BME280;64052;47.466;9.094;2023-02-19T21:00:59;96852.13;;;11.34;52.35
46456;BME280;64052;47.466;9.094;2023-02-19T21:06:01;96845.28;;;11.56;51.98
46456;BME280;64052;47.466;9.094;2023-02-19T21:11:02;96857.44;;;11.21;52.75
46456;BME280;64052;47.466;9.094;2023-02-19T21:16:04;96866.72;;;11.27;52.65
46456;BME280;64052;47.466;9.094;2023-02-19T21:21:05;96875.34;;;11.29;52.71
46456;BME280;64052;47.466;9.094;2023-02-19T21:26:07;96863.00;;;11.29;52.56
46456;BME280;64052;47.466;9.094;2023-02-19T21:31:08;96859.91;;;11.35;52.36
46456;BME280;64052;47.466;9.094;2023-02-19T21:36:10;96869.03;;;11.31;52.84
46456;BME280;64052;47.466;9.094;2023-02-19T21:41:12;96867.63;;;11.38;52.54
46456;BME280;64052;47.466;9.094;2023-02-19T21:46:17;96868.38;;;11.28;52.42
46456;BME280;64052;47.466;9.094;2023-02-19T21:51:26;96861.97;;;11.19;53.25
46456;BME280;64052;47.466;9.094;2023-02-19T21:56:30;96859.66;;;11.14;53.42
46456;BME280;64052;47.466;9.094;2023-02-19T22:01:34;96865.97;;;11.24;53.31
46456;BME280;64052;47.466;9.094;2023-02-19T22:06:36;96877.16;;;11.28;53.61
46456;BME280;64052;47.466;9.094;2023-02-19T22:11:38;96881.09;;;11.22;53.36
46456;BME280;64052;47.466;9.094;2023-02-19T22:16:40;96875.53;;;11.01;53.40
46456;BME280;64052;47.466;9.094;2023-02-19T22:21:43;96890.53;;;11.01;54.34
46456;BME280;64052;47.466;9.094;2023-02-19T22:26:45;96886.59;;;11.06;53.98
46456;BME280;64052;47.466;9.094;2023-02-19T22:31:46;96886.19;;;11.13;53.55
46456;BME280;64052;47.466;9.094;2023-02-19T22:36:48;96891.25;;;11.16;53.28
46456;BME280;64052;47.466;9.094;2023-02-19T22:41:50;96885.16;;;11.02;53.83
46456;BME280;64052;47.466;9.094;2023-02-19T22:46:54;96889.16;;;10.95;54.12
46456;BME280;64052;47.466;9.094;2023-02-19T22:52:01;96888.19;;;11.09;53.73
46456;BME280;64052;47.466;9.094;2023-02-19T22:57:04;96888.75;;;11.01;53.75
46456;BME280;64052;47.466;9.094;2023-02-19T23:02:05;96867.41;;;11.04;53.54
46456;BME280;64052;47.466;9.094;2023-02-19T23:07:07;96884.28;;;11.02;53.15
46456;BME280;64052;47.466;9.094;2023-02-19T23:12:10;96878.69;;;11.06;52.68
46456;BME280;64052;47.466;9.094;2023-02-19T23:17:11;96882.59;;;11.01;52.48
46456;BME280;64052;47.466;9.094;2023-02-19T23:22:13;96880.50;;;11.06;52.92
46456;BME280;64052;47.466;9.094;2023-02-19T23:27:15;96886.94;;;11.02;53.25
46456;BME280;64052;47.466;9.094;2023-02-19T23:32:16;96902.63;;;11.16;52.88
46456;BME280;64052;47.466;9.094;2023-02-19T23:37:18;96894.78;;;11.28;52.86
46456;BME280;64052;47.466;9.094;2023-02-19T23:42:19;96899.50;;;10.98;53.16
46456;BME280;64052;47.466;9.094;2023-02-19T23:47:21;96899.38;;;11.13;52.72
46456;BME280;64052;47.466;9.094;2023-02-19T23:52:22;96894.75;;;11.03;53.08
46456;BME280;64052;47.466;9.094;2023-02-19T23:57:24;96896.97;;;10.83;53.45
